createdAt,value
2022-10-14T00:01:15.270Z,1.67
2022-10-14T00:03:44.842Z,2.13
2022-10-14T00:06:16.992Z,1.83
2022-10-14T00:08:47.800Z,1.90
2022-10-14T00:11:18.488Z,2.13
2022-10-14T00:13:47.274Z,1.10
2022-10-14T00:16:19.535Z,1.33
2022-10-14T00:18:47.970Z,0.70
2022-10-14T00:21:17.969Z,0.70
2022-10-14T00:23:47.042Z,0.90
2022-10-14T00:26:20.233Z,0.83
2022-10-14T00:28:48.754Z,1.37
2022-10-14T00:31:16.713Z,2.20
2022-10-14T00:33:48.742Z,1.33
2022-10-14T00:36:19.756Z,2.20
2022-10-14T00:38:48.619Z,2.40
2022-10-14T00:41:19.181Z,1.13
2022-10-14T00:43:56.111Z,1.53
2022-10-14T00:46:23.907Z,1.00
2022-10-14T00:48:59.926Z,0.80
2022-10-14T00:51:55.277Z,0.83
2022-10-14T00:54:26.835Z,1.27
2022-10-14T00:56:54.802Z,0.70
2022-10-14T00:59:23.530Z,1.13
2022-10-14T01:01:51.394Z,0.80
2022-10-14T01:04:19.814Z,1.30
2022-10-14T01:07:02.204Z,1.50
2022-10-14T01:09:35.135Z,1.57
2022-10-14T01:12:29.950Z,2.97
2022-10-14T01:15:05.709Z,1.13
2022-10-14T01:17:44.633Z,1.33
2022-10-14T01:20:34.171Z,2.10
2022-10-14T01:23:22.302Z,2.87
2022-10-14T01:25:58.770Z,3.17
2022-10-14T01:28:36.859Z,1.73
2022-10-14T01:31:10.904Z,1.70
2022-10-14T01:33:41.861Z,3.40
2022-10-14T01:36:16.683Z,2.00
2022-10-14T01:38:50.112Z,3.17
2022-10-14T01:41:24.022Z,2.23
2022-10-14T01:43:54.498Z,2.70
2022-10-14T01:46:27.388Z,2.73
2022-10-14T01:48:59.127Z,2.10
2022-10-14T01:51:32.095Z,2.17
2022-10-14T01:54:03.699Z,2.80
2022-10-14T01:56:37.026Z,2.17
2022-10-14T01:59:09.476Z,2.27
2022-10-14T02:01:39.964Z,2.50
2022-10-14T02:04:16.426Z,2.30
2022-10-14T02:06:51.888Z,2.83
2022-10-14T02:09:28.930Z,2.37
2022-10-14T02:12:09.905Z,3.30
2022-10-14T02:14:44.787Z,3.17
2022-10-14T02:17:21.810Z,3.03
2022-10-14T02:19:53.755Z,3.50
2022-10-14T02:22:29.152Z,4.07
2022-10-14T02:25:01.033Z,3.93
2022-10-14T02:27:30.910Z,4.03
2022-10-14T02:30:00.934Z,3.80
2022-10-14T02:32:31.699Z,4.40
2022-10-14T02:35:00.550Z,3.23
2022-10-14T02:37:31.043Z,5.23
2022-10-14T02:40:06.082Z,3.47
2022-10-14T02:42:34.510Z,3.37
2022-10-14T02:45:05.903Z,5.83
2022-10-14T02:47:34.985Z,3.50
2022-10-14T02:50:02.688Z,3.43
2022-10-14T02:52:31.113Z,4.07
2022-10-14T02:54:59.158Z,3.30
2022-10-14T02:57:27.392Z,4.73
2022-10-14T02:59:57.887Z,3.87
2022-10-14T03:02:26.286Z,3.87
2022-10-14T03:04:55.525Z,3.43
2022-10-14T03:07:24.153Z,3.77
2022-10-14T03:09:53.063Z,4.13
2022-10-14T03:12:22.093Z,2.77
2022-10-14T03:14:50.922Z,4.10
2022-10-14T03:17:22.710Z,3.70
2022-10-14T03:19:52.846Z,4.10
2022-10-14T03:22:22.889Z,3.67
2022-10-14T03:24:51.673Z,4.10
2022-10-14T03:27:44.675Z,2.73
2022-10-14T03:30:14.948Z,3.27
2022-10-14T03:32:56.886Z,3.90
2022-10-14T03:35:47.530Z,3.40
2022-10-14T03:38:21.583Z,4.67
2022-10-14T03:40:50.526Z,4.70
2022-10-14T03:43:19.062Z,3.97
2022-10-14T03:45:55.134Z,3.73
2022-10-14T03:48:25.731Z,3.47
2022-10-14T03:50:57.346Z,3.37
2022-10-14T03:53:27.776Z,3.30
2022-10-14T03:55:55.896Z,2.83
2022-10-14T03:58:24.083Z,3.03
2022-10-14T04:00:58.311Z,3.57
2022-10-14T04:03:35.673Z,3.43
2022-10-14T04:06:03.623Z,4.07
2022-10-14T04:08:33.300Z,3.50
2022-10-14T04:11:14.221Z,4.03
2022-10-14T04:13:42.103Z,3.80
2022-10-14T04:16:12.018Z,3.83
2022-10-14T04:19:16.126Z,4.73
2022-10-14T04:21:45.193Z,4.27
2022-10-14T04:24:15.041Z,5.10
2022-10-14T04:26:47.499Z,4.70
2022-10-14T04:29:23.646Z,4.77
2022-10-14T04:32:01.089Z,4.93
2022-10-14T04:34:30.058Z,5.37
2022-10-14T04:36:58.617Z,4.63
2022-10-14T04:39:43.156Z,4.13
2022-10-14T04:42:11.771Z,4.03
2022-10-14T04:44:41.793Z,3.63
2022-10-14T04:47:11.957Z,6.10
2022-10-14T04:49:40.086Z,5.90
2022-10-14T04:52:14.772Z,5.27
2022-10-14T04:54:54.770Z,5.73
2022-10-14T04:57:34.235Z,4.30
2022-10-14T05:00:02.597Z,4.47
2022-10-14T05:02:46.438Z,4.10
2022-10-14T05:05:15.871Z,3.33
2022-10-14T05:07:47.386Z,5.50
2022-10-14T05:10:45.607Z,5.13
2022-10-14T05:13:20.339Z,2.97
2022-10-14T05:15:58.290Z,3.17
2022-10-14T05:18:27.438Z,4.23
2022-10-14T05:21:00.675Z,4.40
2022-10-14T05:23:41.986Z,4.57
2022-10-14T05:26:11.078Z,5.73
2022-10-14T05:28:41.683Z,5.73
2022-10-14T05:31:10.730Z,4.63
2022-10-14T05:33:47.014Z,3.33
2022-10-14T05:36:14.765Z,4.33
2022-10-14T05:38:42.940Z,3.73
2022-10-14T05:41:12.267Z,2.17
2022-10-14T05:43:41.093Z,3.30
2022-10-14T05:46:08.819Z,2.80
2022-10-14T05:48:42.030Z,3.77
2022-10-14T05:51:10.069Z,4.07
2022-10-14T05:53:40.258Z,3.63
2022-10-14T05:56:15.908Z,2.77
2022-10-14T05:58:44.258Z,3.93
2022-10-14T06:01:12.583Z,2.83
2022-10-14T06:03:42.913Z,3.63
2022-10-14T06:06:14.065Z,3.10
2022-10-14T06:08:43.316Z,4.40
2022-10-14T06:11:11.013Z,3.63
2022-10-14T06:13:41.238Z,3.20
2022-10-14T06:16:10.853Z,2.97
2022-10-14T06:18:39.652Z,3.33
2022-10-14T06:21:08.206Z,2.67
2022-10-14T06:23:36.331Z,2.30
2022-10-14T06:26:05.997Z,3.83
2022-10-14T06:28:34.337Z,2.70
2022-10-14T06:31:03.393Z,3.20
2022-10-14T06:33:32.158Z,3.30
2022-10-14T06:36:00.164Z,3.33
2022-10-14T06:38:28.607Z,3.20
2022-10-14T06:40:56.607Z,2.70
2022-10-14T06:43:24.561Z,4.20
2022-10-14T06:45:52.721Z,2.23
2022-10-14T06:48:21.820Z,3.50
2022-10-14T06:50:49.507Z,2.47
2022-10-14T06:53:17.727Z,2.47
2022-10-14T06:55:45.469Z,2.70
2022-10-14T06:58:13.813Z,2.60
2022-10-14T07:00:45.692Z,2.43
2022-10-14T07:03:16.391Z,1.40
2022-10-14T07:05:45.704Z,2.40
2022-10-14T07:08:15.524Z,2.20
2022-10-14T07:10:43.787Z,1.87
2022-10-14T07:13:12.283Z,2.37
2022-10-14T07:15:40.127Z,1.30
2022-10-14T07:18:08.552Z,1.40
2022-10-14T07:20:36.293Z,2.17
2022-10-14T07:23:05.707Z,1.43
2022-10-14T07:25:33.887Z,2.00
2022-10-14T07:28:02.033Z,1.20
2022-10-14T07:30:29.850Z,1.43
2022-10-14T07:32:58.173Z,1.10
2022-10-14T07:35:26.916Z,1.60
2022-10-14T07:37:55.668Z,2.00
2022-10-14T07:40:24.867Z,1.60
2022-10-14T07:42:52.929Z,1.63
2022-10-14T07:45:21.232Z,1.30
2022-10-14T07:47:51.272Z,1.00
2022-10-14T07:50:19.684Z,2.27
2022-10-14T07:52:47.824Z,2.53
2022-10-14T07:55:15.568Z,3.73
2022-10-14T07:57:44.657Z,1.33
2022-10-14T08:00:12.890Z,1.10
2022-10-14T08:02:41.072Z,1.90
2022-10-14T08:05:39.294Z,3.10
2022-10-14T08:07:57.707Z,2.43
2022-10-14T08:10:25.427Z,1.43
2022-10-14T08:12:54.816Z,2.63
2022-10-14T08:15:22.747Z,4.27
2022-10-14T08:17:50.966Z,1.30
2022-10-14T08:20:18.742Z,2.33
2022-10-14T08:22:47.725Z,1.77
2022-10-14T08:25:15.485Z,0.47
2022-10-14T08:27:43.550Z,1.00
2022-10-14T08:30:13.165Z,0.50
2022-10-14T08:32:41.299Z,0.97
2022-10-14T08:35:09.676Z,0.73
2022-10-14T08:37:38.209Z,1.20
2022-10-14T08:40:07.580Z,0.80
2022-10-14T08:42:41.301Z,0.50
2022-10-14T08:45:16.183Z,1.00
2022-10-14T08:47:46.915Z,0.50
2022-10-14T08:50:24.680Z,0.60
2022-10-14T08:52:58.359Z,0.60
2022-10-14T08:55:31.395Z,0.60
2022-10-14T08:58:06.306Z,0.40
2022-10-14T09:00:38.011Z,0.60
2022-10-14T09:03:16.338Z,1.27
2022-10-14T09:05:44.585Z,0.20
2022-10-14T09:08:17.035Z,0.87
2022-10-14T09:10:45.376Z,0.37
2022-10-14T09:13:18.686Z,0.30
2022-10-14T09:15:51.322Z,0.30
2022-10-14T09:18:27.967Z,0.70
2022-10-14T09:20:57.276Z,0.30
2022-10-14T09:23:26.453Z,0.77
2022-10-14T09:25:58.714Z,0.60
2022-10-14T09:28:34.673Z,1.53
2022-10-14T09:31:04.184Z,0.60
2022-10-14T09:33:37.114Z,0.33
2022-10-14T09:36:13.461Z,0.53
2022-10-14T09:38:42.187Z,0.80
2022-10-14T09:41:15.721Z,0.63
2022-10-14T09:44:18.649Z,0.70
2022-10-14T09:46:58.531Z,0.43
2022-10-14T09:49:36.010Z,0.73
2022-10-14T09:52:03.770Z,0.47
2022-10-14T09:54:33.542Z,1.07
2022-10-14T09:57:04.934Z,0.93
2022-10-14T09:59:33.804Z,0.40
2022-10-14T10:02:05.389Z,0.60
2022-10-14T10:04:36.973Z,0.70
2022-10-14T10:07:07.013Z,0.80
2022-10-14T10:09:35.621Z,0.20
2022-10-14T10:12:24.195Z,0.33
2022-10-14T10:14:58.126Z,0.30
2022-10-14T10:17:28.273Z,0.20
2022-10-14T10:20:09.599Z,0.40
2022-10-14T10:22:38.923Z,0.30
2022-10-14T10:25:20.277Z,0.50
2022-10-14T10:27:50.666Z,0.60
2022-10-14T10:30:24.385Z,0.60
2022-10-14T10:33:18.423Z,0.63
2022-10-14T10:36:02.231Z,0.40
2022-10-14T10:38:35.060Z,0.70
2022-10-14T10:41:17.914Z,0.40
2022-10-14T10:44:12.312Z,0.43
2022-10-14T10:46:54.991Z,0.33
2022-10-14T10:49:38.782Z,0.67
2022-10-14T10:52:17.430Z,0.80
2022-10-14T10:54:56.452Z,0.97
2022-10-14T10:57:43.274Z,1.17
2022-10-14T11:00:16.527Z,0.93
2022-10-14T11:02:56.089Z,0.23
2022-10-14T11:05:44.050Z,0.97
2022-10-14T11:08:42.687Z,0.33
2022-10-14T11:11:39.814Z,0.30
2022-10-14T11:14:17.978Z,0.63
2022-10-14T11:16:53.252Z,0.40
2022-10-14T11:19:28.004Z,0.30
2022-10-14T11:22:06.910Z,0.40
2022-10-14T11:24:44.342Z,0.40
2022-10-14T11:27:20.962Z,0.80
2022-10-14T11:30:16.553Z,1.33
2022-10-14T11:33:00.076Z,0.30
2022-10-14T11:35:38.025Z,2.33
2022-10-14T11:38:25.214Z,0.50
2022-10-14T11:41:02.525Z,0.30
2022-10-14T11:43:40.721Z,0.47
2022-10-14T11:46:11.908Z,0.27
2022-10-14T11:48:45.302Z,0.70
2022-10-14T11:51:18.347Z,0.30
2022-10-14T11:53:58.407Z,0.50
2022-10-14T11:56:44.019Z,0.40
2022-10-14T11:59:32.034Z,0.30
2022-10-14T12:02:15.645Z,0.20
2022-10-14T12:04:47.462Z,1.20
2022-10-14T12:07:19.884Z,0.50
2022-10-14T12:09:57.384Z,0.40
2022-10-14T12:12:29.879Z,0.53
2022-10-14T12:15:01.187Z,0.50
2022-10-14T12:17:34.429Z,0.30
2022-10-14T12:20:09.801Z,1.00
2022-10-14T12:22:40.090Z,0.93
2022-10-14T12:25:17.582Z,1.60
2022-10-14T12:27:45.838Z,1.07
2022-10-14T12:30:35.065Z,0.70
2022-10-14T12:33:05.472Z,0.40
2022-10-14T12:36:00.987Z,0.57
2022-10-14T12:38:30.801Z,0.87
2022-10-14T12:41:32.213Z,0.63
2022-10-14T12:44:04.454Z,0.40
2022-10-14T12:46:32.580Z,0.90
2022-10-14T12:49:00.778Z,0.60
2022-10-14T12:51:28.530Z,0.40
2022-10-14T12:54:07.382Z,0.50
2022-10-14T12:56:39.838Z,0.50
2022-10-14T12:59:23.382Z,0.60
2022-10-14T13:01:56.995Z,0.73
2022-10-14T13:04:25.264Z,1.37
2022-10-14T13:07:47.186Z,1.00
2022-10-14T13:10:47.289Z,0.90
2022-10-14T13:13:52.290Z,3.83
2022-10-14T13:17:06.129Z,3.40
2022-10-14T13:19:44.942Z,1.77
2022-10-14T13:22:43.595Z,0.83
2022-10-14T13:25:18.154Z,0.87
2022-10-14T13:28:12.423Z,0.87
2022-10-14T13:31:05.685Z,0.50
2022-10-14T13:33:41.737Z,1.47
2022-10-14T13:36:17.841Z,0.97
2022-10-14T13:38:53.507Z,1.00
2022-10-14T13:41:30.576Z,0.40
2022-10-14T13:44:01.320Z,1.10
2022-10-14T13:46:33.211Z,0.73
2022-10-14T13:49:09.784Z,0.77
2022-10-14T13:51:45.805Z,0.97
2022-10-14T13:54:22.318Z,0.93
2022-10-14T13:57:38.124Z,1.07
2022-10-14T14:02:41.026Z,0.83
2022-10-14T14:05:17.198Z,1.30
2022-10-14T14:10:42.599Z,0.93
2022-10-14T14:13:19.872Z,1.10
2022-10-14T14:15:51.821Z,0.80
2022-10-14T14:18:49.133Z,0.83
2022-10-14T14:21:25.353Z,0.73
2022-10-14T14:23:56.499Z,0.43
2022-10-14T14:26:29.038Z,1.23
2022-10-14T14:28:56.910Z,0.97
2022-10-14T14:31:33.636Z,1.33
2022-10-14T14:34:18.046Z,0.87
2022-10-14T14:36:51.243Z,1.57
2022-10-14T14:39:27.562Z,0.97
2022-10-14T14:41:57.725Z,0.90
2022-10-14T14:44:28.187Z,1.33
2022-10-14T14:46:59.067Z,1.10
2022-10-14T14:49:29.289Z,1.13
2022-10-14T14:52:00.299Z,1.27
2022-10-14T14:54:30.250Z,0.90
2022-10-14T14:57:04.851Z,1.27
2022-10-14T14:59:36.772Z,1.23
2022-10-14T15:02:11.538Z,0.70
2022-10-14T15:04:39.682Z,1.87
2022-10-14T15:07:17.454Z,1.40
2022-10-14T15:09:52.566Z,1.10
2022-10-14T15:12:23.277Z,2.47
2022-10-14T15:14:53.842Z,0.53
2022-10-14T15:17:27.044Z,0.47
2022-10-14T15:19:57.060Z,2.90
2022-10-14T15:22:33.513Z,1.67
2022-10-14T15:25:09.687Z,1.83
2022-10-14T15:27:46.730Z,1.30
2022-10-14T15:30:31.694Z,1.43
2022-10-14T15:33:01.296Z,2.00
2022-10-14T15:35:30.587Z,1.00
2022-10-14T15:37:58.373Z,3.57
2022-10-14T15:40:30.810Z,3.17
2022-10-14T15:42:59.501Z,2.17
2022-10-14T15:45:27.457Z,3.00
2022-10-14T15:48:01.769Z,4.50
2022-10-14T15:50:30.343Z,4.43
2022-10-14T15:52:57.982Z,7.07
2022-10-14T15:55:29.999Z,5.87
2022-10-14T15:57:59.410Z,5.40
2022-10-14T16:00:27.205Z,5.47
2022-10-14T16:02:58.482Z,8.23
2022-10-14T16:05:28.888Z,7.10
2022-10-14T16:07:57.360Z,7.47
2022-10-14T16:10:29.333Z,3.80
2022-10-14T16:13:01.680Z,2.87
2022-10-14T16:15:36.573Z,4.40
2022-10-14T16:18:04.835Z,2.30
2022-10-14T16:20:32.960Z,3.40
2022-10-14T16:23:01.278Z,4.30
2022-10-14T16:25:32.853Z,4.73
2022-10-14T16:28:07.604Z,2.20
2022-10-14T16:30:38.639Z,2.50
2022-10-14T16:33:07.504Z,1.77
2022-10-14T16:35:35.209Z,1.67
2022-10-14T16:38:03.524Z,2.13
2022-10-14T16:40:35.826Z,2.63
2022-10-14T16:43:07.788Z,2.00
2022-10-14T16:45:35.416Z,1.60
2022-10-14T16:48:03.324Z,1.83
2022-10-14T16:50:30.959Z,1.37
2022-10-14T16:53:16.923Z,1.50
2022-10-14T16:55:44.578Z,1.57
2022-10-14T16:58:13.933Z,1.70
2022-10-14T17:00:42.087Z,1.43
2022-10-14T17:03:12.355Z,3.33
2022-10-14T17:05:40.023Z,1.80
2022-10-14T17:08:09.226Z,1.33
2022-10-14T17:10:38.860Z,1.17
2022-10-14T17:13:06.850Z,1.33
2022-10-14T17:15:38.497Z,1.53
2022-10-14T17:18:08.942Z,1.43
2022-10-14T17:20:39.743Z,1.93
2022-10-14T17:23:10.384Z,1.40
2022-10-14T17:25:40.832Z,1.20
2022-10-14T17:28:09.908Z,1.37
2022-10-14T17:30:39.063Z,1.50
2022-10-14T17:33:07.048Z,1.37
2022-10-14T17:35:34.727Z,1.47
2022-10-14T17:38:02.369Z,1.40
2022-10-14T17:40:33.956Z,1.70
2022-10-14T17:43:01.860Z,2.33
2022-10-14T17:45:31.356Z,1.37
2022-10-14T17:48:00.347Z,1.70
2022-10-14T17:50:28.515Z,1.60
2022-10-14T17:52:58.748Z,1.63
2022-10-14T17:55:26.817Z,1.43
2022-10-14T17:57:54.546Z,2.23
2022-10-14T18:00:22.867Z,1.83
2022-10-14T18:02:50.570Z,2.53
2022-10-14T18:05:20.510Z,1.20
2022-10-14T18:07:48.148Z,2.67
2022-10-14T18:10:16.034Z,1.73
2022-10-14T18:12:43.943Z,2.97
2022-10-14T18:15:11.866Z,1.17
2022-10-14T18:17:39.511Z,1.53
2022-10-14T18:20:07.999Z,2.30
2022-10-14T18:22:37.093Z,1.67
2022-10-14T18:25:06.681Z,1.63
2022-10-14T18:27:34.364Z,0.77
2022-10-14T18:30:02.329Z,1.67
2022-10-14T18:32:29.999Z,2.00
2022-10-14T18:34:57.650Z,1.97
2022-10-14T18:37:25.390Z,1.93
2022-10-14T18:39:55.065Z,2.53
2022-10-14T18:42:23.069Z,2.70
2022-10-14T18:44:51.418Z,3.27
2022-10-14T18:47:19.176Z,4.00
2022-10-14T18:49:48.702Z,3.10
2022-10-14T18:52:18.783Z,4.73
2022-10-14T18:54:47.168Z,3.03
2022-10-14T18:57:17.265Z,3.40
2022-10-14T18:59:45.200Z,3.00
2022-10-14T19:02:14.859Z,2.00
2022-10-14T19:04:42.649Z,3.10
2022-10-14T19:07:10.398Z,1.90
2022-10-14T19:09:38.578Z,1.93
2022-10-14T19:12:26.688Z,2.53
2022-10-14T19:14:56.028Z,1.83
2022-10-14T19:17:23.676Z,2.73
2022-10-14T19:19:52.079Z,1.70
2022-10-14T19:22:20.115Z,1.57
2022-10-14T19:24:48.026Z,2.10
2022-10-14T19:27:15.729Z,1.57
2022-10-14T19:29:43.704Z,1.50
2022-10-14T19:32:12.778Z,1.87
2022-10-14T19:34:44.853Z,2.27
2022-10-14T19:37:14.790Z,2.13
2022-10-14T19:39:43.089Z,3.00
2022-10-14T19:42:10.718Z,2.63
2022-10-14T19:44:38.384Z,2.73
2022-10-14T19:47:06.123Z,2.97
2022-10-14T19:49:35.519Z,1.57
2022-10-14T19:52:03.164Z,2.37
2022-10-14T19:54:31.195Z,1.43
2022-10-14T19:56:58.825Z,2.10
2022-10-14T19:59:26.887Z,2.40
2022-10-14T20:01:54.625Z,1.60
2022-10-14T20:04:25.212Z,2.27
2022-10-14T20:06:56.628Z,2.87
2022-10-14T20:09:24.549Z,2.87
2022-10-14T20:11:52.994Z,2.67
2022-10-14T20:14:20.898Z,3.60
2022-10-14T20:16:53.547Z,2.93
2022-10-14T20:19:23.710Z,3.20
2022-10-14T20:21:51.701Z,3.30
2022-10-14T20:24:20.727Z,2.97
2022-10-14T20:26:48.727Z,3.37
2022-10-14T20:29:16.633Z,3.57
2022-10-14T20:31:44.675Z,2.30
2022-10-14T20:34:12.343Z,3.07
2022-10-14T20:36:40.354Z,1.97
2022-10-14T20:39:07.981Z,1.83
2022-10-14T20:41:37.117Z,2.27
2022-10-14T20:44:05.033Z,2.87
2022-10-14T20:46:32.923Z,2.50
2022-10-14T20:49:00.732Z,2.40
2022-10-14T20:51:28.770Z,1.87
2022-10-14T20:54:01.808Z,3.40
2022-10-14T20:56:33.871Z,2.40
2022-10-14T20:59:04.511Z,2.40
2022-10-14T21:01:35.859Z,2.47
2022-10-14T21:04:05.025Z,1.10
2022-10-14T21:06:33.310Z,1.20
2022-10-14T21:09:01.585Z,1.47
2022-10-14T21:11:29.931Z,2.20
2022-10-14T21:13:59.806Z,1.77
2022-10-14T21:16:30.998Z,1.37
2022-10-14T21:19:01.707Z,1.30
2022-10-14T21:21:34.069Z,0.87
2022-10-14T21:24:01.713Z,1.10
2022-10-14T21:26:30.518Z,1.50
2022-10-14T21:28:58.255Z,1.53
2022-10-14T21:31:28.125Z,1.70
2022-10-14T21:34:01.160Z,2.03
2022-10-14T21:36:30.799Z,0.80
2022-10-14T21:39:00.683Z,0.87
2022-10-14T21:41:28.982Z,0.97
2022-10-14T21:43:58.791Z,1.43
2022-10-14T21:46:28.769Z,1.87
2022-10-14T21:48:57.766Z,2.57
2022-10-14T21:51:27.756Z,2.17
2022-10-14T21:53:55.966Z,1.33
2022-10-14T21:56:25.254Z,1.27
2022-10-14T21:58:53.187Z,1.27
2022-10-14T22:01:23.480Z,1.00
2022-10-14T22:03:56.126Z,0.90
2022-10-14T22:06:24.655Z,1.30
2022-10-14T22:08:55.172Z,1.30
2022-10-14T22:11:26.726Z,1.00
2022-10-14T22:13:56.069Z,1.07
2022-10-14T22:16:24.415Z,1.00
2022-10-14T22:18:54.526Z,1.53
2022-10-14T22:21:24.918Z,0.70
2022-10-14T22:23:53.034Z,0.50
2022-10-14T22:26:24.014Z,0.60
2022-10-14T22:28:58.574Z,0.63
2022-10-14T22:31:27.884Z,0.60
2022-10-14T22:33:56.976Z,0.63
2022-10-14T22:36:28.470Z,0.40
2022-10-14T22:38:56.947Z,0.47
2022-10-14T22:41:27.910Z,0.73
2022-10-14T22:43:59.701Z,0.33
2022-10-14T22:46:29.573Z,0.70
2022-10-14T22:49:00.754Z,1.03
2022-10-14T22:51:31.340Z,0.40
2022-10-14T22:53:59.629Z,0.37
2022-10-14T22:56:30.154Z,0.60
2022-10-14T22:58:59.313Z,0.30
2022-10-14T23:01:28.531Z,0.40
2022-10-14T23:03:58.293Z,0.37
2022-10-14T23:06:27.510Z,0.63
2022-10-14T23:08:55.326Z,0.30
2022-10-14T23:11:25.846Z,1.10
2022-10-14T23:13:54.378Z,0.30
2022-10-14T23:16:24.251Z,0.30
2022-10-14T23:18:52.850Z,0.47
2022-10-14T23:21:24.685Z,1.50
2022-10-14T23:23:53.810Z,1.03
2022-10-14T23:26:23.578Z,0.37
2022-10-14T23:28:52.974Z,0.50
2022-10-14T23:31:23.243Z,0.40
2022-10-14T23:33:52.708Z,0.73
2022-10-14T23:36:23.285Z,0.47
2022-10-14T23:38:52.899Z,0.60
2022-10-14T23:41:22.593Z,2.00
2022-10-14T23:43:52.028Z,0.63
2022-10-14T23:46:20.853Z,0.30
2022-10-14T23:48:55.924Z,0.40
2022-10-14T23:51:36.704Z,0.93
2022-10-14T23:54:05.626Z,0.67
2022-10-14T23:56:33.295Z,0.30
2022-10-14T23:59:01.234Z,0.30
